• Join FlightAware (Why Join?)
  • Login
  • US Flag 
05:13AM EDT


 

Airport Tracker/Info


-or-


 

Live Flight TrackerFlight Track Log ✈ UAL1519 ✈ 12-Mar-2014 ✈ KEWR - TIST / STT

Flight Track Log - Related Links

Times and Time Zones

All times are in EDT time to prevent confusion due to time zone crossing. See the UAL1519 flight status page for this flight to view local times or setup timezone preferences in your user account.

Time Position Orientation Groundspeed Altitude Reporting Facility
EDT Latitude Longitude Course Direction KTS MPH feet Rate Location/Type
10:00AM 40.7333 -74.1167 123° Southeast 214 246 2,200  Level New York TRACON
10:01AM 40.8000 -74.1333 349° North 288 331 5,500 3,600 Climbing New York TRACON
10:02AM 40.3329 -74.1649 161° South  Level FlightAware Approximate
10:02AM 40.8000 -74.2167 270° West 258 297 9,500  Level New York TRACON
10:03AM 40.2054 -74.1500 180° South  Level FlightAware Approximate
10:03AM 40.7333 -74.2333 191° South 276 318 11,000  Level New York TRACON
10:04AM 40.0833 -74.1403 90° East  Level FlightAware Approximate
10:04AM 40.6500 -74.2500 189° South 279 321 11,000  Level New York TRACON
10:05AM 40.0374 -73.9914 123° Southeast  Level FlightAware Approximate
10:05AM 40.5833 -74.2667 191° South 281 323 11,000  Level New York TRACON
10:07AM 40.4506 -74.2292 168° South 326 375 13,000 1,320 Climbing New York Center
10:08AM 40.3664 -74.1897 160° South 326 375 14,600 960 Climbing New York Center
10:09AM 40.2775 -74.1608 166° South 326 375 15,000 180 Climbing New York Center
10:10AM 40.1897 -74.1672 183° South 320 368 15,000  Level New York Center
10:11AM 40.1011 -74.1303 162° South 325 374 15,000  Level New York Center
10:12AM 40.0525 -74.0142 119° Southeast 333 383 15,000 300 Level New York Center
10:13AM 40.0158 -73.8986 112° Southeast 360 414 15,700 900 Climbing New York Center
10:14AM 39.9697 -73.7556 113° Southeast 371 427 16,900 1,500 Climbing New York Center
10:15AM 39.9272 -73.6211 112° Southeast 385 443 18,800 2,160 Climbing New York Center
10:16AM 39.8806 -73.4814 113° Southeast 404 465 21,300 2,040 Climbing New York Center
10:17AM 39.8394 -73.3528 113° Southeast 415 478 23,000 1,080 Climbing New York Center
10:18AM 39.8094 -73.2028 105° East 422 486 23,500 1,440 Climbing New York Center
10:19AM 39.8128 -73.0356 88° East 436 502 25,900 2,040 Climbing New York Center
10:20AM 39.8203 -72.8656 87° East 446 513 27,700 1,740 Climbing New York Center
10:21AM 39.7750 -72.7047 110° East 459 528 29,400 1,620 Climbing New York Center
10:22AM 39.6853 -72.5808 133° Southeast 445 512 31,000 1,380 Climbing New York Center
10:23AM 39.5892 -72.4653 137° Southeast 456 525 32,300 3,900 Climbing New York Center
10:24AM 39.4908 -72.3444 137° Southeast 472 543 39,000 1,740 Climbing New York Center
10:25AM 39.4006 -72.2350 137° Southeast 488 562 35,800 -960 Descending New York Center
10:26AM 39.2833 -72.0931 137° Southeast 493 567 37,200 1,440 Climbing New York Center
10:27AM 39.1867 -71.9786 137° Southeast 487 560 38,700 840 Climbing New York Center
10:28AM 39.0897 -71.8619 137° Southeast 482 555 39,000 120 Climbing New York Center
10:29AM 38.9908 -71.7403 136° Southeast 482 555 39,000  Level New York Center
10:30AM 38.8917 -71.6242 138° Southeast 487 560 39,000  Level New York Center
10:31AM 38.7925 -71.5003 136° Southeast 492 566 39,000  Level New York Center
10:32AM 38.6931 -71.3847 138° Southeast 492 566 39,000  Level New York Center
10:33AM 38.5936 -71.2669 137° Southeast 492 566 39,000  Level New York Center
10:34AM 38.4939 -71.1494 137° Southeast 487 560 39,000  Level New York Center
10:35AM 38.3942 -71.0322 137° Southeast 487 560 39,000  Level New York Center
10:36AM 38.2922 -70.9233 140° Southeast 487 560 39,000  Level New York Center
10:37AM 38.1944 -70.8017 136° Southeast 487 560 39,000  Level New York Center
10:38AM 38.0986 -70.6800 135° Southeast 487 560 39,000  Level New York Center
10:39AM 37.9900 -70.5828 145° Southeast 487 560 39,000  Level New York Center
10:40AM 37.8772 -70.5039 151° Southeast 477 549 39,000  Level New York Center
10:41AM 37.7622 -70.4333 154° Southeast 463 533 39,000  Level New York Center
10:42AM 38.0000 -70.5833 153° Southeast 460 529 39,000  Level New York Oceanic (ODAPS)
10:43AM 37.5325 -70.2903 153° Southeast 457 526 39,000  Level New York Center
10:44AM 37.4194 -70.2228 155° Southeast 451 519 39,000  Level New York Center
10:45AM 37.2983 -70.1689 161° South 451 519 39,000  Level New York Center
10:57AM 36.1667 -69.4500 168° South 448 516 39,000  Level New York Oceanic (ODAPS)
10:58AM 35.8725 -69.3739 167° South  Level FlightAware Approximate
10:59AM 35.7530 -69.3412 168° South  Level FlightAware Approximate
11:00AM 35.6334 -69.3087 168° South  Level FlightAware Approximate
11:01AM 35.5139 -69.2763 168° South  Level FlightAware Approximate
11:02AM 35.3944 -69.2440 168° South  Level FlightAware Approximate
11:03AM 35.2748 -69.2117 168° South  Level FlightAware Approximate
11:04AM 35.0677 -69.1569 168° South 448 516 39,000  Level FlightAware Transoceanic
11:05AM 34.9456 -69.1248 168° South 448 516 39,000  Level FlightAware Transoceanic
11:06AM 34.8235 -69.0928 168° South 448 516 39,000  Level FlightAware Transoceanic
11:07AM 34.7013 -69.0609 168° South 448 516 39,000  Level FlightAware Transoceanic
11:08AM 34.5791 -69.0291 168° South 448 516 39,000  Level FlightAware Transoceanic
11:09AM 34.4570 -68.9974 168° South 448 516 39,000  Level FlightAware Transoceanic
11:10AM 34.3348 -68.9658 168° South 448 516 39,000  Level FlightAware Transoceanic
11:11AM 34.2126 -68.9343 168° South 448 516 39,000  Level FlightAware Transoceanic
11:12AM 34.0904 -68.9029 168° South 448 516 39,000  Level FlightAware Transoceanic
11:13AM 33.9682 -68.8716 168° South 448 516 39,000  Level FlightAware Transoceanic
11:14AM 33.8459 -68.8403 168° South 448 516 39,000  Level FlightAware Transoceanic
11:15AM 33.7237 -68.8092 168° South 448 516 39,000  Level FlightAware Transoceanic
11:16AM 33.6015 -68.7781 168° South 448 516 39,000  Level FlightAware Transoceanic
11:17AM 33.4792 -68.7471 168° South 448 516 39,000  Level FlightAware Transoceanic
11:18AM 33.3570 -68.7162 168° South 448 516 39,000  Level FlightAware Transoceanic
11:19AM 33.2347 -68.6854 168° South 448 516 39,000  Level FlightAware Transoceanic
11:20AM 33.1125 -68.6547 168° South 448 516 39,000  Level FlightAware Transoceanic
11:21AM 32.9902 -68.6241 168° South 448 516 39,000  Level FlightAware Transoceanic
11:22AM 32.8679 -68.5935 168° South 448 516 39,000  Level FlightAware Transoceanic
11:23AM 32.7456 -68.5631 168° South 448 516 39,000  Level FlightAware Transoceanic
11:24AM 32.6233 -68.5327 168° South 448 516 39,000  Level FlightAware Transoceanic
11:25AM 32.5010 -68.5024 168° South 448 516 39,000  Level FlightAware Transoceanic
11:26AM 32.3787 -68.4722 168° South 448 516 39,000  Level FlightAware Transoceanic
11:27AM 32.2564 -68.4420 168° South 448 516 39,000  Level FlightAware Transoceanic
11:28AM 32.1341 -68.4120 168° South 448 516 39,000  Level FlightAware Transoceanic
11:29AM 32.0117 -68.3820 168° South 448 516 39,000  Level FlightAware Transoceanic
11:30AM 31.8894 -68.3521 168° South 448 516 39,000  Level FlightAware Transoceanic
11:31AM 31.7671 -68.3223 168° South 448 516 39,000  Level FlightAware Transoceanic
11:32AM 31.6447 -68.2926 168° South 448 516 39,000  Level FlightAware Transoceanic
11:33AM 31.5224 -68.2629 168° South 448 516 39,000  Level FlightAware Transoceanic
11:34AM 31.4000 -68.2333 169° South 448 516 39,000  Level FlightAware Transoceanic
11:35AM 31.2768 -68.2040 169° South 448 516 39,000  Level FlightAware Transoceanic
11:36AM 31.1535 -68.1748 169° South 448 516 39,000  Level FlightAware Transoceanic
11:37AM 31.0303 -68.1457 169° South 448 516 39,000  Level FlightAware Transoceanic
11:38AM 30.9070 -68.1166 169° South 448 516 39,000  Level FlightAware Transoceanic
11:39AM 30.7838 -68.0876 169° South 448 516 39,000  Level FlightAware Transoceanic
11:40AM 30.6605 -68.0587 169° South 448 516 39,000  Level FlightAware Transoceanic
11:41AM 30.5373 -68.0298 169° South 448 516 39,000  Level FlightAware Transoceanic
11:42AM 30.4140 -68.0011 169° South 448 516 39,000  Level FlightAware Transoceanic
11:43AM 30.2907 -67.9724 169° South 448 516 39,000  Level FlightAware Transoceanic
11:44AM 30.1674 -67.9437 169° South 448 516 39,000  Level FlightAware Transoceanic
11:45AM 30.0441 -67.9152 169° South 448 516 39,000  Level FlightAware Transoceanic
11:46AM 29.9208 -67.8867 169° South 448 516 39,000  Level FlightAware Transoceanic
11:47AM 29.7975 -67.8583 169° South 448 516 39,000  Level FlightAware Transoceanic
11:48AM 29.6742 -67.8299 169° South 448 516 39,000  Level FlightAware Transoceanic
11:49AM 29.5509 -67.8017 169° South 448 516 39,000  Level FlightAware Transoceanic
11:50AM 29.4276 -67.7735 169° South 448 516 39,000  Level FlightAware Transoceanic
11:51AM 29.3042 -67.7453 169° South 448 516 39,000  Level FlightAware Transoceanic
11:52AM 29.1809 -67.7173 169° South 448 516 39,000  Level FlightAware Transoceanic
11:53AM 29.0576 -67.6893 169° South 448 516 39,000  Level FlightAware Transoceanic
11:54AM 28.9342 -67.6613 169° South 448 516 39,000  Level FlightAware Transoceanic
11:55AM 28.8109 -67.6335 169° South 448 516 39,000  Level FlightAware Transoceanic
11:56AM 28.6875 -67.6057 169° South 448 516 39,000  Level FlightAware Transoceanic
11:57AM 28.5641 -67.5779 169° South 448 516 39,000  Level FlightAware Transoceanic
11:58AM 28.4408 -67.5502 169° South 448 516 39,000  Level FlightAware Transoceanic
11:59AM 28.3174 -67.5226 169° South 448 516 39,000  Level FlightAware Transoceanic
12:00PM 28.1940 -67.4951 169° South 448 516 39,000  Level FlightAware Transoceanic
12:01PM 28.0706 -67.4676 169° South 448 516 39,000  Level FlightAware Transoceanic
12:02PM 27.9472 -67.4402 169° South 448 516 39,000  Level FlightAware Transoceanic
12:03PM 27.8238 -67.4128 169° South 448 516 39,000  Level FlightAware Transoceanic
12:04PM 27.7004 -67.3856 169° South 448 516 39,000  Level FlightAware Transoceanic
12:05PM 27.5770 -67.3583 169° South 448 516 39,000  Level FlightAware Transoceanic
12:06PM 27.4536 -67.3311 169° South 448 516 39,000  Level FlightAware Transoceanic
12:07PM 27.3302 -67.3040 169° South 448 516 39,000  Level FlightAware Transoceanic
12:08PM 27.2068 -67.2770 169° South 448 516 39,000 1,380 Level FlightAware Transoceanic
12:08PM 27.0833 -67.2500 158° South 491 565 41,000  Climbing New York Oceanic (ODAPS)
12:44PM 22.4000 -65.2833 166° South 480 552 41,000  Level San Juan Center
12:45PM 22.2281 -65.1856 159° South 491 565 41,000  Level FlightAware Transoceanic
12:45PM 22.2833 -65.2333 158° South 480 552 41,000  Level San Juan Center
12:46PM 22.1000 -65.1333 166° South 491 565 41,000  Level FlightAware Transoceanic
12:46PM 22.1500 -65.1833 161° South 470 541 41,000  Level San Juan Center
12:47PM 21.9771 -65.0998 166° South 491 565 41,000  Level FlightAware Transoceanic
12:47PM 22.0333 -65.1167 152° Southeast 530 610 41,000  Level San Juan Center
12:48PM 21.8542 -65.0663 166° South 491 565 41,000  Level FlightAware Transoceanic
12:48PM 21.9000 -65.1000 173° South 470 541 41,000  Level San Juan Center
12:49PM 21.7313 -65.0329 166° South 491 565 41,000  Level FlightAware Transoceanic
12:49PM 21.8000 -65.0833 171° South 490 564 41,000 -120 Level San Juan Center
12:50PM 21.6500 -65.0833 180° South 470 541 40,900  Descending San Juan Center
12:51PM 21.5333 -65.0833 180° South 440 506 41,000  Climbing San Juan Center
12:52PM 21.4000 -65.1000 187° South 440 506 41,000  Level San Juan Center
12:53PM 21.2833 -65.1000 180° South 410 472 41,000  Level San Juan Center
12:54PM 21.1667 -65.1000 180° South 440 506 41,000  Level San Juan Center
12:55PM 21.0333 -65.1000 180° South 480 552 41,000  Level San Juan Center
12:56PM 20.9167 -65.1167 188° South 410 472 41,000  Level San Juan Center
12:57PM 20.8000 -65.1000 172° South 450 518 41,000  Level San Juan Center
12:58PM 20.6667 -65.1167 187° South 440 506 41,000  Level San Juan Center
12:59PM 20.5500 -65.1167 180° South 440 506 41,000 -600 Level San Juan Center
01:00PM 20.4333 -65.1167 180° South 440 506 39,900 -1,800 Descending San Juan Center
01:01PM 20.3000 -65.1167 180° South 430 495 37,400 -2,640 Descending San Juan Center
01:02PM 20.1833 -65.1167 180° South 460 529 34,600 -3,000 Descending San Juan Center
01:03PM 20.0167 -65.1333 185° South 480 552 31,400 -2,940 Descending San Juan Center
01:04PM 19.8833 -65.1333 180° South 460 529 28,700 -2,580 Descending San Juan Center
01:05PM 19.7667 -65.1333 180° South 450 518 26,300 -2,340 Descending San Juan Center
01:06PM 19.6333 -65.1333 180° South 440 506 24,000 -2,340 Descending San Juan Center
01:07PM 19.5167 -65.1333 180° South 430 495 21,700 -2,400 Descending San Juan Center
01:08PM 19.4000 -65.1500 188° South 420 483 19,300 -2,280 Descending San Juan Center
01:09PM 19.2833 -65.1500 180° South 400 460 17,200 -2,100 Descending San Juan Center
01:10PM 19.1833 -65.1500 180° South 390 449 15,100 -2,280 Descending San Juan Center
01:11PM 19.0833 -65.1500 180° South 370 426 12,700 -2,040 Descending San Juan Center
01:12PM 18.9833 -65.1500 180° South 350 403 11,100 -1,140 Descending San Juan Center
01:13PM 18.8833 -65.1500 180° South 310 357 10,500 -900 Descending San Juan Center
01:14PM 18.8000 -65.1667 191° South 290 334 9,300 -1,260 Descending San Juan Center
01:15PM 18.7333 -65.1667 180° South 280 322 8,000 -1,200 Descending San Juan Center
01:16PM 18.6500 -65.1667 180° South 280 322 7,000 -1,080 Descending San Juan Center
01:17PM 18.5833 -65.1667 180° South 260 299 5,900 -1,080 Descending San Juan Center
01:18PM 18.5167 -65.1667 180° South 240 276 4,900 -1,440 Descending San Juan Center
01:19PM 18.4500 -65.1500 167° South 230 265 3,100 -1,380 Descending San Juan Center
01:20PM 18.3833 -65.1333 167° South 230 265 2,200 -420 Descending San Juan Center
01:21PM 18.3333 -65.1167 162° South 190 219 2,300 -240 Climbing San Juan Center
01:22PM 18.3333 -65.0667 90° East 180 207 1,800 -600 Descending San Juan Center
01:23PM 18.3167 -65.0333 118° Southeast 130 150 1,200 -660 Descending San Juan Center
01:24PM 18.3333 -64.9833 71° East 140 161 500 -720 Descending San Juan Center